sensor_id;sensor_type;location;lat;lon;timestamp;pressure;altitude;pressure_sealevel;temperature;humidity
16613;BME280;8419;52.358;9.752;2023-04-09T00:01:12;102068.00;;;16.20;39.48
16613;BME280;8419;52.358;9.752;2023-04-09T00:03:57;102071.00;;;16.19;39.48
16613;BME280;8419;52.358;9.752;2023-04-09T00:06:43;102066.00;;;16.16;39.46
16613;BME280;8419;52.358;9.752;2023-04-09T00:09:28;102070.00;;;16.08;39.70
16613;BME280;8419;52.358;9.752;2023-04-09T00:12:15;102070.00;;;16.09;39.66
16613;BME280;8419;52.358;9.752;2023-04-09T00:15:00;102079.00;;;16.14;39.55
16613;BME280;8419;52.358;9.752;2023-04-09T00:17:46;102074.00;;;16.23;39.38
16613;BME280;8419;52.358;9.752;2023-04-09T00:20:32;102072.00;;;16.20;39.37
16613;BME280;8419;52.358;9.752;2023-04-09T00:23:17;102067.00;;;16.12;39.58
16613;BME280;8419;52.358;9.752;2023-04-09T00:26:03;102066.00;;;16.10;39.64
16613;BME280;8419;52.358;9.752;2023-04-09T00:28:49;102066.00;;;16.23;39.34
16613;BME280;8419;52.358;9.752;2023-04-09T00:31:35;102070.00;;;16.15;39.48
16613;BME280;8419;52.358;9.752;2023-04-09T00:34:21;102061.00;;;16.13;39.50
16613;BME280;8419;52.358;9.752;2023-04-09T00:37:06;102058.00;;;16.13;39.54
16613;BME280;8419;52.358;9.752;2023-04-09T00:39:52;102061.00;;;16.13;39.55
16613;BME280;8419;52.358;9.752;2023-04-09T00:42:38;102062.00;;;16.17;39.48
16613;BME280;8419;52.358;9.752;2023-04-09T00:45:24;102054.00;;;16.18;39.44
16613;BME280;8419;52.358;9.752;2023-04-09T00:48:10;102058.00;;;16.23;39.38
16613;BME280;8419;52.358;9.752;2023-04-09T00:50:56;102068.00;;;16.25;39.37
16613;BME280;8419;52.358;9.752;2023-04-09T00:53:42;102073.00;;;16.24;39.35
16613;BME280;8419;52.358;9.752;2023-04-09T00:56:29;102063.00;;;16.19;39.37
16613;BME280;8419;52.358;9.752;2023-04-09T00:59:14;102071.00;;;16.10;39.52
16613;BME280;8419;52.358;9.752;2023-04-09T01:02:00;102067.00;;;16.14;39.45
16613;BME280;8419;52.358;9.752;2023-04-09T01:04:46;102069.00;;;16.16;39.39
16613;BME280;8419;52.358;9.752;2023-04-09T01:07:50;102055.00;;;16.14;39.41
16613;BME280;8419;52.358;9.752;2023-04-09T01:10:43;102058.00;;;16.15;39.40
16613;BME280;8419;52.358;9.752;2023-04-09T01:13:38;102059.00;;;16.15;39.27
16613;BME280;8419;52.358;9.752;2023-04-09T01:16:28;102052.00;;;16.02;39.42
16613;BME280;8419;52.358;9.752;2023-04-09T01:19:31;102050.00;;;15.97;39.42
16613;BME280;8419;52.358;9.752;2023-04-09T01:22:31;102052.00;;;15.88;39.50
16613;BME280;8419;52.358;9.752;2023-04-09T01:25:32;102057.00;;;15.85;39.45
16613;BME280;8419;52.358;9.752;2023-04-09T01:28:24;102049.00;;;15.85;39.30
16613;BME280;8419;52.358;9.752;2023-04-09T01:31:13;102048.00;;;15.77;39.33
16613;BME280;8419;52.358;9.752;2023-04-09T01:34:00;102048.00;;;15.68;39.43
16613;BME280;8419;52.358;9.752;2023-04-09T01:36:51;102040.00;;;15.70;39.30
16613;BME280;8419;52.358;9.752;2023-04-09T01:39:40;102038.00;;;15.63;39.34
16613;BME280;8419;52.358;9.752;2023-04-09T01:42:27;102038.00;;;15.53;39.43
16613;BME280;8419;52.358;9.752;2023-04-09T01:45:13;102038.00;;;15.40;39.56
16613;BME280;8419;52.358;9.752;2023-04-09T01:48:00;102043.00;;;15.42;39.51
16613;BME280;8419;52.358;9.752;2023-04-09T01:50:48;102036.00;;;15.39;39.51
16613;BME280;8419;52.358;9.752;2023-04-09T01:53:34;102036.00;;;15.34;39.53
16613;BME280;8419;52.358;9.752;2023-04-09T01:56:20;102035.00;;;15.29;39.52
16613;BME280;8419;52.358;9.752;2023-04-09T01:59:06;102038.00;;;15.25;39.51
16613;BME280;8419;52.358;9.752;2023-04-09T02:01:54;102039.00;;;15.17;39.59
16613;BME280;8419;52.358;9.752;2023-04-09T02:04:46;102038.00;;;15.09;39.71
16613;BME280;8419;52.358;9.752;2023-04-09T02:07:37;102033.00;;;15.12;39.63
16613;BME280;8419;52.358;9.752;2023-04-09T02:10:26;102029.00;;;15.15;39.57
16613;BME280;8419;52.358;9.752;2023-04-09T02:13:15;102030.00;;;15.15;39.57
16613;BME280;8419;52.358;9.752;2023-04-09T02:16:01;102029.00;;;15.23;39.51
16613;BME280;8419;52.358;9.752;2023-04-09T02:18:53;102032.00;;;15.26;39.48
16613;BME280;8419;52.358;9.752;2023-04-09T02:21:39;102027.00;;;15.26;39.52
16613;BME280;8419;52.358;9.752;2023-04-09T02:24:25;102023.00;;;15.30;39.41
16613;BME280;8419;52.358;9.752;2023-04-09T02:27:11;102027.00;;;15.26;39.51
16613;BME280;8419;52.358;9.752;2023-04-09T02:29:56;102028.00;;;15.28;39.49
16613;BME280;8419;52.358;9.752;2023-04-09T02:32:42;102029.00;;;15.35;39.38
16613;BME280;8419;52.358;9.752;2023-04-09T02:35:27;102031.00;;;15.39;39.33
16613;BME280;8419;52.358;9.752;2023-04-09T02:38:13;102029.00;;;15.36;39.39
16613;BME280;8419;52.358;9.752;2023-04-09T02:41:00;102028.00;;;15.37;39.39
16613;BME280;8419;52.358;9.752;2023-04-09T02:43:45;102026.00;;;15.39;39.34
16613;BME280;8419;52.358;9.752;2023-04-09T02:46:31;102031.00;;;15.39;39.33
16613;BME280;8419;52.358;9.752;2023-04-09T02:49:17;102038.00;;;15.34;39.38
16613;BME280;8419;52.358;9.752;2023-04-09T02:52:02;102040.00;;;15.32;39.40
16613;BME280;8419;52.358;9.752;2023-04-09T02:54:47;102034.00;;;15.24;39.53
16613;BME280;8419;52.358;9.752;2023-04-09T02:57:33;102031.00;;;15.27;39.54
16613;BME280;8419;52.358;9.752;2023-04-09T03:00:19;102030.00;;;15.26;39.52
16613;BME280;8419;52.358;9.752;2023-04-09T03:03:04;102031.00;;;15.32;39.44
16613;BME280;8419;52.358;9.752;2023-04-09T03:05:51;102019.00;;;15.35;39.33
16613;BME280;8419;52.358;9.752;2023-04-09T03:08:37;102018.00;;;15.29;39.36
16613;BME280;8419;52.358;9.752;2023-04-09T03:11:23;102025.00;;;15.24;39.39
16613;BME280;8419;52.358;9.752;2023-04-09T03:14:09;102016.00;;;15.26;39.35
16613;BME280;8419;52.358;9.752;2023-04-09T03:16:54;102012.00;;;15.16;39.49
16613;BME280;8419;52.358;9.752;2023-04-09T03:19:40;102011.00;;;15.23;39.35
16613;BME280;8419;52.358;9.752;2023-04-09T03:22:25;102013.00;;;15.19;39.42
16613;BME280;8419;52.358;9.752;2023-04-09T03:25:11;102008.00;;;15.18;39.34
16613;BME280;8419;52.358;9.752;2023-04-09T03:27:56;102011.00;;;15.23;39.27
16613;BME280;8419;52.358;9.752;2023-04-09T03:30:41;102013.00;;;15.16;39.34
16613;BME280;8419;52.358;9.752;2023-04-09T03:33:28;102009.00;;;15.22;39.17
16613;BME280;8419;52.358;9.752;2023-04-09T03:36:13;102008.00;;;15.21;39.15
16613;BME280;8419;52.358;9.752;2023-04-09T03:38:59;102003.00;;;15.17;39.25
16613;BME280;8419;52.358;9.752;2023-04-09T03:41:45;102005.00;;;15.15;39.32
16613;BME280;8419;52.358;9.752;2023-04-09T03:44:31;102009.00;;;15.12;39.37
16613;BME280;8419;52.358;9.752;2023-04-09T03:47:16;102002.00;;;15.10;39.34
16613;BME280;8419;52.358;9.752;2023-04-09T03:50:02;102007.00;;;15.10;39.33
16613;BME280;8419;52.358;9.752;2023-04-09T03:52:48;102007.00;;;15.13;39.27
16613;BME280;8419;52.358;9.752;2023-04-09T03:55:33;102007.00;;;15.13;39.21
16613;BME280;8419;52.358;9.752;2023-04-09T03:58:19;102002.00;;;15.10;39.21
16613;BME280;8419;52.358;9.752;2023-04-09T04:01:05;102005.00;;;15.07;39.24
16613;BME280;8419;52.358;9.752;2023-04-09T04:03:50;102009.00;;;15.03;39.21
16613;BME280;8419;52.358;9.752;2023-04-09T04:06:38;102011.00;;;14.99;39.22
16613;BME280;8419;52.358;9.752;2023-04-09T04:09:24;102013.00;;;14.96;39.24
16613;BME280;8419;52.358;9.752;2023-04-09T04:12:10;102019.00;;;14.93;39.23
16613;BME280;8419;52.358;9.752;2023-04-09T04:14:55;102021.00;;;14.93;39.21
16613;BME280;8419;52.358;9.752;2023-04-09T04:17:42;102024.00;;;14.85;39.26
16613;BME280;8419;52.358;9.752;2023-04-09T04:20:27;102018.00;;;14.82;39.29
16613;BME280;8419;52.358;9.752;2023-04-09T04:23:13;102009.00;;;14.86;39.17
16613;BME280;8419;52.358;9.752;2023-04-09T04:25:58;102020.00;;;14.82;39.30
16613;BME280;8419;52.358;9.752;2023-04-09T04:28:44;102022.00;;;14.84;39.28
16613;BME280;8419;52.358;9.752;2023-04-09T04:31:29;102018.00;;;14.88;39.15
16613;BME280;8419;52.358;9.752;2023-04-09T04:34:15;102023.00;;;14.77;39.36
16613;BME280;8419;52.358;9.752;2023-04-09T04:37:00;102016.00;;;14.74;39.42
16613;BME280;8419;52.358;9.752;2023-04-09T04:39:47;102023.00;;;14.72;39.46
16613;BME280;8419;52.358;9.752;2023-04-09T04:42:32;102026.00;;;14.71;39.55
16613;BME280;8419;52.358;9.752;2023-04-09T04:45:18;102023.00;;;14.82;39.41
16613;BME280;8419;52.358;9.752;2023-04-09T04:48:04;102024.00;;;14.82;39.46
16613;BME280;8419;52.358;9.752;2023-04-09T04:50:55;102020.00;;;14.80;39.47
16613;BME280;8419;52.358;9.752;2023-04-09T04:53:41;102030.00;;;14.87;39.41
16613;BME280;8419;52.358;9.752;2023-04-09T04:56:29;102037.00;;;14.88;39.32
16613;BME280;8419;52.358;9.752;2023-04-09T04:59:14;102036.00;;;14.92;39.26
16613;BME280;8419;52.358;9.752;2023-04-09T05:01:59;102041.00;;;14.86;39.35
16613;BME280;8419;52.358;9.752;2023-04-09T05:04:46;102037.00;;;14.73;39.59
16613;BME280;8419;52.358;9.752;2023-04-09T05:07:32;102033.00;;;14.75;39.61
16613;BME280;8419;52.358;9.752;2023-04-09T05:10:19;102041.00;;;14.78;39.62
16613;BME280;8419;52.358;9.752;2023-04-09T05:13:05;102041.00;;;14.83;39.57
16613;BME280;8419;52.358;9.752;2023-04-09T05:15:51;102043.00;;;14.84;39.54
16613;BME280;8419;52.358;9.752;2023-04-09T05:18:36;102043.00;;;14.84;39.51
16613;BME280;8419;52.358;9.752;2023-04-09T05:21:22;102041.00;;;14.87;39.40
16613;BME280;8419;52.358;9.752;2023-04-09T05:24:07;102044.00;;;14.88;39.41
16613;BME280;8419;52.358;9.752;2023-04-09T05:26:54;102047.00;;;14.92;39.45
16613;BME280;8419;52.358;9.752;2023-04-09T05:29:39;102049.00;;;15.05;39.24
16613;BME280;8419;52.358;9.752;2023-04-09T05:32:25;102047.00;;;15.14;39.10
16613;BME280;8419;52.358;9.752;2023-04-09T05:35:11;102053.00;;;15.18;39.07
16613;BME280;8419;52.358;9.752;2023-04-09T05:37:56;102052.00;;;15.17;39.11
16613;BME280;8419;52.358;9.752;2023-04-09T05:40:42;102050.00;;;15.14;39.17
16613;BME280;8419;52.358;9.752;2023-04-09T05:43:29;102053.00;;;15.15;39.16
16613;BME280;8419;52.358;9.752;2023-04-09T05:46:15;102055.00;;;15.16;39.15
16613;BME280;8419;52.358;9.752;2023-04-09T05:49:00;102058.00;;;15.15;39.22
16613;BME280;8419;52.358;9.752;2023-04-09T05:51:45;102060.00;;;15.19;39.26
16613;BME280;8419;52.358;9.752;2023-04-09T05:54:31;102059.00;;;15.26;39.17
16613;BME280;8419;52.358;9.752;2023-04-09T05:57:16;102068.00;;;15.36;39.11
16613;BME280;8419;52.358;9.752;2023-04-09T06:00:07;102066.00;;;15.43;39.08
16613;BME280;8419;52.358;9.752;2023-04-09T06:02:53;102067.00;;;15.48;39.09
16613;BME280;8419;52.358;9.752;2023-04-09T06:05:39;102063.00;;;15.46;39.15
16613;BME280;8419;52.358;9.752;2023-04-09T06:08:24;102062.00;;;15.60;38.93
16613;BME280;8419;52.358;9.752;2023-04-09T06:11:11;102067.00;;;15.71;38.84
16613;BME280;8419;52.358;9.752;2023-04-09T06:13:57;102065.00;;;15.81;38.72
16613;BME280;8419;52.358;9.752;2023-04-09T06:16:42;102064.00;;;15.87;38.68
16613;BME280;8419;52.358;9.752;2023-04-09T06:19:28;102064.00;;;15.98;38.62
16613;BME280;8419;52.358;9.752;2023-04-09T06:22:13;102064.00;;;15.93;38.77
16613;BME280;8419;52.358;9.752;2023-04-09T06:24:59;102059.00;;;16.03;38.64
16613;BME280;8419;52.358;9.752;2023-04-09T06:27:44;102063.00;;;16.08;38.58
16613;BME280;8419;52.358;9.752;2023-04-09T06:30:30;102064.00;;;16.15;38.54
16613;BME280;8419;52.358;9.752;2023-04-09T06:33:16;102067.00;;;16.22;38.51
16613;BME280;8419;52.358;9.752;2023-04-09T06:36:03;102060.00;;;16.35;38.34
16613;BME280;8419;52.358;9.752;2023-04-09T06:38:49;102072.00;;;16.42;38.32
16613;BME280;8419;52.358;9.752;2023-04-09T06:41:35;102073.00;;;16.55;38.20
16613;BME280;8419;52.358;9.752;2023-04-09T06:44:21;102071.00;;;16.58;38.17
16613;BME280;8419;52.358;9.752;2023-04-09T06:47:08;102074.00;;;16.65;38.13
16613;BME280;8419;52.358;9.752;2023-04-09T06:49:53;102079.00;;;16.74;38.05
16613;BME280;8419;52.358;9.752;2023-04-09T06:52:39;102077.00;;;16.81;38.01
16613;BME280;8419;52.358;9.752;2023-04-09T06:55:26;102075.00;;;16.89;37.92
16613;BME280;8419;52.358;9.752;2023-04-09T06:58:11;102075.00;;;16.91;38.05
16613;BME280;8419;52.358;9.752;2023-04-09T07:00:57;102081.00;;;17.00;37.96
16613;BME280;8419;52.358;9.752;2023-04-09T07:03:43;102078.00;;;17.11;37.85
16613;BME280;8419;52.358;9.752;2023-04-09T07:06:30;102079.00;;;17.21;37.82
16613;BME280;8419;52.358;9.752;2023-04-09T07:09:15;102082.00;;;17.29;37.76
16613;BME280;8419;52.358;9.752;2023-04-09T07:12:03;102083.00;;;17.44;37.56
16613;BME280;8419;52.358;9.752;2023-04-09T07:14:49;102080.00;;;17.50;37.52
16613;BME280;8419;52.358;9.752;2023-04-09T07:17:35;102088.00;;;17.50;37.59
16613;BME280;8419;52.358;9.752;2023-04-09T07:20:20;102077.00;;;17.58;37.54
16613;BME280;8419;52.358;9.752;2023-04-09T07:23:06;102084.00;;;17.62;37.55
16613;BME280;8419;52.358;9.752;2023-04-09T07:25:52;102076.00;;;17.71;37.42
16613;BME280;8419;52.358;9.752;2023-04-09T07:28:38;102080.00;;;17.85;37.33
16613;BME280;8419;52.358;9.752;2023-04-09T07:31:24;102080.00;;;17.91;37.24
16613;BME280;8419;52.358;9.752;2023-04-09T07:34:10;102084.00;;;17.96;37.22
16613;BME280;8419;52.358;9.752;2023-04-09T07:36:57;102089.00;;;18.01;37.25
16613;BME280;8419;52.358;9.752;2023-04-09T07:39:42;102084.00;;;18.12;37.17
16613;BME280;8419;52.358;9.752;2023-04-09T07:42:28;102085.00;;;18.31;36.95
16613;BME280;8419;52.358;9.752;2023-04-09T07:45:14;102078.00;;;18.31;37.02
16613;BME280;8419;52.358;9.752;2023-04-09T07:47:59;102078.00;;;18.37;36.93
16613;BME280;8419;52.358;9.752;2023-04-09T07:50:45;102079.00;;;18.41;36.96
16613;BME280;8419;52.358;9.752;2023-04-09T07:53:30;102079.00;;;18.47;36.92
16613;BME280;8419;52.358;9.752;2023-04-09T07:56:16;102085.00;;;18.54;36.86
16613;BME280;8419;52.358;9.752;2023-04-09T07:59:01;102084.00;;;18.56;36.92
16613;BME280;8419;52.358;9.752;2023-04-09T08:01:47;102081.00;;;18.72;36.78
16613;BME280;8419;52.358;9.752;2023-04-09T08:04:34;102081.00;;;18.86;36.67
16613;BME280;8419;52.358;9.752;2023-04-09T08:07:20;102086.00;;;19.08;36.45
16613;BME280;8419;52.358;9.752;2023-04-09T08:10:07;102076.00;;;19.27;36.18
16613;BME280;8419;52.358;9.752;2023-04-09T08:12:58;102075.00;;;19.52;35.92
16613;BME280;8419;52.358;9.752;2023-04-09T08:15:44;102082.00;;;19.65;35.76
16613;BME280;8419;52.358;9.752;2023-04-09T08:18:29;102080.00;;;19.64;35.79
16613;BME280;8419;52.358;9.752;2023-04-09T08:21:15;102080.00;;;19.72;35.68
16613;BME280;8419;52.358;9.752;2023-04-09T08:24:01;102082.00;;;19.83;35.58
16613;BME280;8419;52.358;9.752;2023-04-09T08:26:48;102080.00;;;19.80;35.54
16613;BME280;8419;52.358;9.752;2023-04-09T08:29:34;102076.00;;;19.83;35.53
16613;BME280;8419;52.358;9.752;2023-04-09T08:32:19;102084.00;;;19.89;35.45
16613;BME280;8419;52.358;9.752;2023-04-09T08:35:08;102085.00;;;19.76;35.68
16613;BME280;8419;52.358;9.752;2023-04-09T08:37:54;102082.00;;;19.78;35.63
16613;BME280;8419;52.358;9.752;2023-04-09T08:40:41;102087.00;;;19.62;35.91
16613;BME280;8419;52.358;9.752;2023-04-09T08:43:27;102078.00;;;19.66;35.91
16613;BME280;8419;52.358;9.752;2023-04-09T08:46:13;102083.00;;;19.85;35.73
16613;BME280;8419;52.358;9.752;2023-04-09T08:49:00;102082.00;;;20.11;35.47
16613;BME280;8419;52.358;9.752;2023-04-09T08:51:46;102078.00;;;20.39;35.11
16613;BME280;8419;52.358;9.752;2023-04-09T08:54:32;102075.00;;;20.58;34.83
16613;BME280;8419;52.358;9.752;2023-04-09T08:57:18;102082.00;;;20.70;34.72
16613;BME280;8419;52.358;9.752;2023-04-09T09:00:05;102078.00;;;20.94;34.36
16613;BME280;8419;52.358;9.752;2023-04-09T09:03:06;102085.00;;;21.00;34.21
16613;BME280;8419;52.358;9.752;2023-04-09T09:05:54;102083.00;;;20.77;34.54
16613;BME280;8419;52.358;9.752;2023-04-09T09:08:40;102083.00;;;20.80;34.45
16613;BME280;8419;52.358;9.752;2023-04-09T09:11:26;102078.00;;;20.82;34.45
16613;BME280;8419;52.358;9.752;2023-04-09T09:14:13;102078.00;;;20.88;34.31
16613;BME280;8419;52.358;9.752;2023-04-09T09:17:05;102078.00;;;20.89;34.27
16613;BME280;8419;52.358;9.752;2023-04-09T09:19:52;102079.00;;;21.03;34.10
16613;BME280;8419;52.358;9.752;2023-04-09T09:22:49;102075.00;;;21.01;34.04
16613;BME280;8419;52.358;9.752;2023-04-09T09:25:38;102074.00;;;21.03;33.98
16613;BME280;8419;52.358;9.752;2023-04-09T09:28:33;102073.00;;;20.99;34.01
16613;BME280;8419;52.358;9.752;2023-04-09T09:31:20;102073.00;;;21.12;33.85
16613;BME280;8419;52.358;9.752;2023-04-09T09:34:09;102078.00;;;21.16;33.74
16613;BME280;8419;52.358;9.752;2023-04-09T09:36:54;102073.00;;;21.23;33.61
16613;BME280;8419;52.358;9.752;2023-04-09T09:39:42;102079.00;;;21.22;33.58
16613;BME280;8419;52.358;9.752;2023-04-09T09:42:28;102075.00;;;21.29;33.48
16613;BME280;8419;52.358;9.752;2023-04-09T09:45:17;102082.00;;;21.24;33.53
16613;BME280;8419;52.358;9.752;2023-04-09T09:48:05;102079.00;;;21.31;33.41
16613;BME280;8419;52.358;9.752;2023-04-09T09:50:51;102074.00;;;21.35;33.29
16613;BME280;8419;52.358;9.752;2023-04-09T09:53:38;102073.00;;;21.50;33.09
16613;BME280;8419;52.358;9.752;2023-04-09T09:56:26;102081.00;;;21.58;32.96
16613;BME280;8419;52.358;9.752;2023-04-09T09:59:19;102085.00;;;21.51;32.97
16613;BME280;8419;52.358;9.752;2023-04-09T10:02:08;102085.00;;;21.55;32.90
16613;BME280;8419;52.358;9.752;2023-04-09T10:04:59;102078.00;;;21.56;32.87
16613;BME280;8419;52.358;9.752;2023-04-09T10:07:45;102077.00;;;21.58;32.81
16613;BME280;8419;52.358;9.752;2023-04-09T10:10:33;102078.00;;;21.60;32.74
16613;BME280;8419;52.358;9.752;2023-04-09T10:13:28;102076.00;;;21.58;32.81
16613;BME280;8419;52.358;9.752;2023-04-09T10:16:16;102068.00;;;21.77;32.62
16613;BME280;8419;52.358;9.752;2023-04-09T10:19:04;102065.00;;;21.90;32.41
16613;BME280;8419;52.358;9.752;2023-04-09T10:21:55;102062.00;;;22.10;32.25
16613;BME280;8419;52.358;9.752;2023-04-09T10:24:42;102053.00;;;22.33;32.01
16613;BME280;8419;52.358;9.752;2023-04-09T10:27:28;102050.00;;;22.65;31.74
16613;BME280;8419;52.358;9.752;2023-04-09T10:30:31;102047.00;;;23.02;31.33
16613;BME280;8419;52.358;9.752;2023-04-09T10:33:22;102047.00;;;22.79;31.86
16613;BME280;8419;52.358;9.752;2023-04-09T10:36:11;102040.00;;;23.15;31.24
16613;BME280;8419;52.358;9.752;2023-04-09T10:38:57;102038.00;;;23.14;31.12
16613;BME280;8419;52.358;9.752;2023-04-09T10:41:57;102037.00;;;23.20;31.08
16613;BME280;8419;52.358;9.752;2023-04-09T10:44:43;102035.00;;;23.29;30.89
16613;BME280;8419;52.358;9.752;2023-04-09T10:47:32;102023.00;;;23.34;30.74
16613;BME280;8419;52.358;9.752;2023-04-09T10:50:19;102024.00;;;23.25;30.74
16613;BME280;8419;52.358;9.752;2023-04-09T10:53:06;102026.00;;;23.24;30.64
16613;BME280;8419;52.358;9.752;2023-04-09T10:55:52;102021.00;;;23.21;30.65
16613;BME280;8419;52.358;9.752;2023-04-09T10:58:38;102021.00;;;23.37;30.35
16613;BME280;8419;52.358;9.752;2023-04-09T11:01:23;102027.00;;;23.14;30.59
16613;BME280;8419;52.358;9.752;2023-04-09T11:04:16;102022.00;;;23.03;30.67
16613;BME280;8419;52.358;9.752;2023-04-09T11:07:06;102022.00;;;22.85;30.89
16613;BME280;8419;52.358;9.752;2023-04-09T11:09:52;102021.00;;;22.72;31.00
16613;BME280;8419;52.358;9.752;2023-04-09T11:12:37;102020.00;;;22.47;31.19
16613;BME280;8419;52.358;9.752;2023-04-09T11:15:23;102022.00;;;22.31;31.31
16613;BME280;8419;52.358;9.752;2023-04-09T11:18:09;102025.00;;;22.18;31.35
16613;BME280;8419;52.358;9.752;2023-04-09T11:20:59;102024.00;;;21.99;31.50
16613;BME280;8419;52.358;9.752;2023-04-09T11:23:54;102021.00;;;21.98;31.43
16613;BME280;8419;52.358;9.752;2023-04-09T11:26:39;102031.00;;;21.89;31.54
16613;BME280;8419;52.358;9.752;2023-04-09T11:29:24;102027.00;;;21.83;31.56
16613;BME280;8419;52.358;9.752;2023-04-09T11:32:12;102025.00;;;21.74;31.67
16613;BME280;8419;52.358;9.752;2023-04-09T11:34:59;102018.00;;;21.62;31.85
16613;BME280;8419;52.358;9.752;2023-04-09T11:37:45;102029.00;;;21.54;31.94
16613;BME280;8419;52.358;9.752;2023-04-09T11:40:31;102017.00;;;21.60;31.85
16613;BME280;8419;52.358;9.752;2023-04-09T11:43:17;102025.00;;;21.23;32.44
16613;BME280;8419;52.358;9.752;2023-04-09T11:46:05;102026.00;;;21.30;32.38
16613;BME280;8419;52.358;9.752;2023-04-09T11:48:52;102023.00;;;21.33;32.35
16613;BME280;8419;52.358;9.752;2023-04-09T11:51:37;102017.00;;;21.58;31.90
16613;BME280;8419;52.358;9.752;2023-04-09T11:54:23;102020.00;;;21.58;31.80
16613;BME280;8419;52.358;9.752;2023-04-09T11:57:09;102018.00;;;21.43;31.95
16613;BME280;8419;52.358;9.752;2023-04-09T11:59:54;102020.00;;;21.25;32.15
16613;BME280;8419;52.358;9.752;2023-04-09T12:02:44;102021.00;;;21.48;31.83
16613;BME280;8419;52.358;9.752;2023-04-09T12:05:31;102023.00;;;21.62;31.64
16613;BME280;8419;52.358;9.752;2023-04-09T12:08:22;102013.00;;;21.48;31.87
16613;BME280;8419;52.358;9.752;2023-04-09T12:11:10;102015.00;;;21.71;31.63
16613;BME280;8419;52.358;9.752;2023-04-09T12:13:58;102012.00;;;22.12;31.21
16613;BME280;8419;52.358;9.752;2023-04-09T12:16:44;102012.00;;;22.70;30.52
16613;BME280;8419;52.358;9.752;2023-04-09T12:19:30;102015.00;;;23.20;29.90
16613;BME280;8419;52.358;9.752;2023-04-09T12:22:15;102015.00;;;23.47;29.54
16613;BME280;8419;52.358;9.752;2023-04-09T12:25:03;102011.00;;;23.74;29.22
16613;BME280;8419;52.358;9.752;2023-04-09T12:27:54;102005.00;;;24.15;28.79
16613;BME280;8419;52.358;9.752;2023-04-09T12:30:40;102004.00;;;24.32;28.66
16613;BME280;8419;52.358;9.752;2023-04-09T12:33:26;102006.00;;;24.87;28.05
16613;BME280;8419;52.358;9.752;2023-04-09T12:36:11;101991.00;;;25.16;27.79
16613;BME280;8419;52.358;9.752;2023-04-09T12:38:57;101983.00;;;25.60;27.28
16613;BME280;8419;52.358;9.752;2023-04-09T12:41:43;101986.00;;;25.64;27.15
16613;BME280;8419;52.358;9.752;2023-04-09T12:44:29;101982.00;;;25.65;27.05
16613;BME280;8419;52.358;9.752;2023-04-09T12:47:17;101981.00;;;25.53;27.13
16613;BME280;8419;52.358;9.752;2023-04-09T12:50:04;101981.00;;;25.32;27.18
16613;BME280;8419;52.358;9.752;2023-04-09T12:52:50;101984.00;;;25.29;27.12
16613;BME280;8419;52.358;9.752;2023-04-09T12:55:36;101974.00;;;25.49;26.83
16613;BME280;8419;52.358;9.752;2023-04-09T12:58:21;101972.00;;;25.53;26.63
16613;BME280;8419;52.358;9.752;2023-04-09T13:01:07;101974.00;;;25.80;26.27
16613;BME280;8419;52.358;9.752;2023-04-09T13:03:56;101974.00;;;25.85;26.15
16613;BME280;8419;52.358;9.752;2023-04-09T13:06:41;101971.00;;;25.84;26.09
16613;BME280;8419;52.358;9.752;2023-04-09T13:09:27;101963.00;;;25.80;26.08
16613;BME280;8419;52.358;9.752;2023-04-09T13:12:13;101962.00;;;25.78;26.05
16613;BME280;8419;52.358;9.752;2023-04-09T13:14:59;101964.00;;;25.93;25.95
16613;BME280;8419;52.358;9.752;2023-04-09T13:17:45;101955.00;;;26.36;25.50
16613;BME280;8419;52.358;9.752;2023-04-09T13:20:30;101947.00;;;26.70;25.14
16613;BME280;8419;52.358;9.752;2023-04-09T13:23:16;101951.00;;;26.74;25.02
16613;BME280;8419;52.358;9.752;2023-04-09T13:26:03;101953.00;;;26.83;24.96
16613;BME280;8419;52.358;9.752;2023-04-09T13:28:49;101950.00;;;27.65;24.16
16613;BME280;8419;52.358;9.752;2023-04-09T13:31:36;101949.00;;;28.03;23.63
16613;BME280;8419;52.358;9.752;2023-04-09T13:34:22;101948.00;;;27.88;23.84
16613;BME280;8419;52.358;9.752;2023-04-09T13:37:07;101948.00;;;27.96;23.80
16613;BME280;8419;52.358;9.752;2023-04-09T13:39:53;101948.00;;;28.58;23.35
16613;BME280;8419;52.358;9.752;2023-04-09T13:42:39;101948.00;;;28.97;22.87
16613;BME280;8419;52.358;9.752;2023-04-09T13:45:25;101955.00;;;29.08;22.71
16613;BME280;8419;52.358;9.752;2023-04-09T13:48:10;101938.00;;;29.57;22.23
16613;BME280;8419;52.358;9.752;2023-04-09T13:51:02;101945.00;;;29.95;21.77
16613;BME280;8419;52.358;9.752;2023-04-09T13:53:47;101939.00;;;29.91;21.81
16613;BME280;8419;52.358;9.752;2023-04-09T13:56:33;101935.00;;;30.22;21.48
16613;BME280;8419;52.358;9.752;2023-04-09T13:59:18;101933.00;;;30.06;21.45
16613;BME280;8419;52.358;9.752;2023-04-09T14:02:04;101927.00;;;29.78;21.52
16613;BME280;8419;52.358;9.752;2023-04-09T14:04:49;101925.00;;;29.70;21.51
16613;BME280;8419;52.358;9.752;2023-04-09T14:07:35;101921.00;;;30.56;20.76
16613;BME280;8419;52.358;9.752;2023-04-09T14:10:20;101921.00;;;30.96;20.20
16613;BME280;8419;52.358;9.752;2023-04-09T14:13:06;101910.00;;;30.41;20.61
16613;BME280;8419;52.358;9.752;2023-04-09T14:15:55;101908.00;;;31.26;20.00
16613;BME280;8419;52.358;9.752;2023-04-09T14:18:41;101903.00;;;32.37;19.11
16613;BME280;8419;52.358;9.752;2023-04-09T14:21:27;101911.00;;;33.22;18.36
16613;BME280;8419;52.358;9.752;2023-04-09T14:24:13;101914.00;;;33.46;18.16
16613;BME280;8419;52.358;9.752;2023-04-09T14:26:58;101914.00;;;33.71;18.02
16613;BME280;8419;52.358;9.752;2023-04-09T14:29:43;101912.00;;;33.68;18.04
16613;BME280;8419;52.358;9.752;2023-04-09T14:32:29;101896.00;;;33.74;18.00
16613;BME280;8419;52.358;9.752;2023-04-09T14:35:16;101890.00;;;33.96;17.80
16613;BME280;8419;52.358;9.752;2023-04-09T14:38:01;101893.00;;;34.34;17.43
16613;BME280;8419;52.358;9.752;2023-04-09T14:40:48;101899.00;;;34.23;17.42
16613;BME280;8419;52.358;9.752;2023-04-09T14:43:34;101895.00;;;34.32;17.20